createdAt,value
2018-10-12T00:01:02.552Z,101020.95
2018-10-12T00:03:31.587Z,101017.13
2018-10-12T00:06:01.603Z,101029.69
2018-10-12T00:08:31.582Z,101035.95
2018-10-12T00:11:03.986Z,101042.79
2018-10-12T00:19:27.791Z,101055.83
2018-10-12T00:21:56.684Z,101051.21
2018-10-12T00:24:30.585Z,101056.39
2018-10-12T00:26:59.492Z,101047.11
2018-10-12T00:29:28.530Z,101056.66
2018-10-12T00:32:03.235Z,101049.83
2018-10-12T00:34:34.151Z,101050.94
2018-10-12T00:37:03.048Z,101055.55
2018-10-12T00:39:31.962Z,101059.91
2018-10-12T00:42:00.848Z,101067.56
2018-10-12T00:44:29.752Z,101071.94
2018-10-12T00:46:58.676Z,101064.57
2018-10-12T00:49:27.639Z,101057.45
2018-10-12T00:51:56.564Z,101055.80
2018-10-12T00:54:25.468Z,101055.78
2018-10-12T00:56:54.394Z,101058.86
2018-10-12T00:59:23.263Z,101053.91
2018-10-12T01:01:52.210Z,101052.00
2018-10-12T01:04:31.588Z,101054.69
2018-10-12T01:07:00.504Z,101050.37
2018-10-12T01:09:29.425Z,101046.30
2018-10-12T01:12:09.625Z,101040.84
2018-10-12T01:14:38.501Z,101052.52
2018-10-12T01:17:07.421Z,101054.98
2018-10-12T01:19:41.954Z,101069.66
2018-10-12T01:22:10.849Z,101072.92
2018-10-12T01:24:39.794Z,101070.48
2018-10-12T01:27:08.713Z,101072.42
2018-10-12T01:29:43.979Z,101073.52
2018-10-12T01:32:17.053Z,101056.38
2018-10-12T01:34:46.145Z,101059.12
2018-10-12T01:40:11.970Z,101050.37
2018-10-12T01:42:40.862Z,101044.12
2018-10-12T01:45:09.900Z,101046.27
2018-10-12T01:47:38.815Z,101053.64
2018-10-12T01:50:07.713Z,101041.41
2018-10-12T01:52:36.635Z,101053.93
2018-10-12T01:55:05.598Z,101059.95
2018-10-12T01:57:34.497Z,101065.11
2018-10-12T02:00:03.435Z,101081.27
2018-10-12T02:02:32.309Z,101087.18
2018-10-12T02:05:01.223Z,101097.28
2018-10-12T02:07:37.366Z,101103.77
2018-10-12T02:10:06.379Z,101108.36
2018-10-12T02:12:37.289Z,101114.63
2018-10-12T02:15:06.609Z,101114.87
2018-10-12T02:17:35.517Z,101118.69
2018-10-12T02:20:04.597Z,101111.33
2018-10-12T02:25:30.456Z,101108.30
2018-10-12T02:27:59.423Z,101114.85
2018-10-12T02:30:36.469Z,101116.45
2018-10-12T02:33:05.582Z,101125.70
2018-10-12T02:35:34.459Z,101127.30
2018-10-12T02:38:17.303Z,101138.73
2018-10-12T02:40:50.066Z,101132.23
2018-10-12T02:43:19.985Z,101134.10
2018-10-12T02:45:48.966Z,101132.72
2018-10-12T02:48:28.126Z,101141.68
2018-10-12T02:50:57.029Z,101138.41
2018-10-12T02:53:25.971Z,101152.23
2018-10-12T02:55:58.342Z,101154.36
2018-10-12T02:58:27.226Z,101147.55
2018-10-12T03:00:56.101Z,101159.70
2018-10-12T03:03:25.116Z,101157.10
2018-10-12T03:05:54.003Z,101163.98
2018-10-12T03:08:22.900Z,101164.48
2018-10-12T03:13:46.703Z,101162.27
2018-10-12T03:16:15.713Z,101172.02
2018-10-12T03:18:44.738Z,101171.27
2018-10-12T03:21:15.740Z,101170.95
2018-10-12T03:23:44.695Z,101172.55
2018-10-12T03:26:13.614Z,101178.75
2018-10-12T03:28:45.932Z,101172.53
2018-10-12T03:31:14.880Z,101178.02
2018-10-12T03:33:43.778Z,101189.22
2018-10-12T03:36:30.093Z,101177.47
2018-10-12T03:38:58.971Z,101177.21
2018-10-12T03:41:27.876Z,101181.34
2018-10-12T03:44:01.458Z,101188.66
2018-10-12T03:46:35.156Z,101191.31
2018-10-12T03:49:04.025Z,101195.68
2018-10-12T03:51:33.961Z,101208.45
2018-10-12T03:54:07.466Z,101219.54
2018-10-12T03:56:49.065Z,101213.61
2018-10-12T03:59:34.489Z,101216.53
2018-10-12T04:02:15.653Z,101220.03
2018-10-12T04:04:48.180Z,101218.94
2018-10-12T04:07:17.182Z,101226.03
2018-10-12T04:09:48.131Z,101230.34
2018-10-12T04:12:18.031Z,101224.00
2018-10-12T04:14:50.091Z,101221.83
2018-10-12T04:17:33.880Z,101225.36
2018-10-12T04:20:02.803Z,101212.83
2018-10-12T04:22:33.809Z,101212.31
2018-10-12T04:25:09.767Z,101208.78
2018-10-12T04:27:38.619Z,101216.25
2018-10-12T04:33:01.563Z,101235.84
2018-10-12T04:35:30.477Z,101245.62
2018-10-12T04:37:59.443Z,101253.55
2018-10-12T04:41:15.561Z,101249.21
2018-10-12T04:43:45.191Z,101255.58
2018-10-12T04:46:22.502Z,101261.50
2018-10-12T04:49:06.117Z,101269.57
2018-10-12T04:51:46.261Z,101275.47
2018-10-12T04:54:18.879Z,101278.44
2018-10-12T04:56:48.329Z,101280.03
2018-10-12T04:59:23.890Z,101288.19
2018-10-12T05:02:02.873Z,101285.30
2018-10-12T05:04:47.879Z,101291.52
2018-10-12T05:07:29.440Z,101297.77
2018-10-12T05:10:03.319Z,101301.27
2018-10-12T05:12:32.219Z,101299.84
2018-10-12T05:15:01.146Z,101310.17
2018-10-12T05:17:30.053Z,101310.72
2018-10-12T05:19:59.031Z,101322.08
2018-10-12T05:25:35.538Z,101322.37
2018-10-12T05:28:04.540Z,101331.33
2018-10-12T05:36:26.075Z,101339.67
2018-10-12T05:39:00.133Z,101342.77
2018-10-12T05:41:37.316Z,101350.55
2018-10-12T05:44:09.874Z,101352.97
2018-10-12T05:46:48.873Z,101350.41
2018-10-12T05:49:29.298Z,101355.58
2018-10-12T05:52:02.200Z,101363.52
2018-10-12T05:54:41.203Z,101376.72
2018-10-12T05:57:26.409Z,101371.78
2018-10-12T06:00:06.845Z,101372.59
2018-10-12T06:02:35.762Z,101382.11
2018-10-12T06:05:05.092Z,101384.36
2018-10-12T06:07:34.184Z,101387.84
2018-10-12T06:10:22.806Z,101385.34
2018-10-12T06:12:52.803Z,101388.44
2018-10-12T06:18:32.294Z,101398.98
2018-10-12T06:21:01.196Z,101397.06
2018-10-12T06:23:31.109Z,101402.03
2018-10-12T06:28:58.520Z,101412.66
2018-10-12T06:31:33.909Z,101413.97
2018-10-12T06:34:02.854Z,101418.64
2018-10-12T06:36:39.681Z,101425.99
2018-10-12T06:39:13.095Z,101422.39
2018-10-12T06:41:42.250Z,101427.32
2018-10-12T06:44:10.985Z,101436.03
2018-10-12T06:46:42.083Z,101439.23
2018-10-12T06:49:10.845Z,101441.14
2018-10-12T06:51:39.719Z,101453.79
2018-10-12T06:54:09.149Z,101451.92
2018-10-12T06:56:38.040Z,101451.70
2018-10-12T07:02:01.706Z,101464.16
2018-10-12T07:04:30.640Z,101477.77
2018-10-12T07:06:59.574Z,101476.19
2018-10-12T07:09:28.503Z,101488.58
2018-10-12T07:11:57.359Z,101493.80
2018-10-12T07:14:28.481Z,101500.17
2018-10-12T07:16:58.473Z,101494.80
2018-10-12T07:19:35.056Z,101496.56
2018-10-12T07:22:05.200Z,101497.38
2018-10-12T07:24:34.317Z,101499.40
2018-10-12T07:27:03.554Z,101500.57
2018-10-12T07:29:32.498Z,101502.84
2018-10-12T07:32:01.482Z,101509.95
2018-10-12T07:34:31.455Z,101510.27
2018-10-12T07:37:00.413Z,101513.88
2018-10-12T07:39:29.280Z,101514.72
2018-10-12T07:41:58.162Z,101516.83
2018-10-12T07:44:28.159Z,101518.55
2018-10-12T07:46:57.050Z,101514.56
2018-10-12T07:49:26.017Z,101509.98
2018-10-12T07:51:54.968Z,101511.17
2018-10-12T07:54:23.879Z,101522.77
2018-10-12T07:56:52.780Z,101524.08
2018-10-12T07:59:21.650Z,101521.47
2018-10-12T08:01:50.567Z,101520.73
2018-10-12T08:04:19.591Z,101521.31
2018-10-12T08:06:53.992Z,101524.47
2018-10-12T08:09:22.855Z,101521.52
2018-10-12T08:11:57.227Z,101522.10
2018-10-12T08:14:50.079Z,101523.86
2018-10-12T08:17:18.986Z,101535.89
2018-10-12T08:19:58.115Z,101533.30
2018-10-12T08:22:31.674Z,101537.44
2018-10-12T08:25:04.203Z,101537.52
2018-10-12T08:27:39.574Z,101544.02
2018-10-12T08:30:13.709Z,101543.28
2018-10-12T08:32:49.812Z,101553.13
2018-10-12T08:35:18.737Z,101552.30
2018-10-12T08:37:50.917Z,101561.65
2018-10-12T08:40:21.833Z,101566.07
2018-10-12T08:42:50.798Z,101576.72
2018-10-12T08:45:19.937Z,101571.57
2018-10-12T08:47:53.894Z,101580.88
2018-10-12T08:50:22.853Z,101574.59
2018-10-12T08:53:08.315Z,101577.89
2018-10-12T08:55:42.927Z,101573.55
2018-10-12T08:58:22.314Z,101577.08
2018-10-12T09:01:01.209Z,101574.89
2018-10-12T09:03:33.611Z,101571.11
2018-10-12T09:06:07.430Z,101573.30
2018-10-12T09:08:37.455Z,101573.59
2018-10-12T09:11:07.733Z,101573.36
2018-10-12T09:13:39.255Z,101569.45
2018-10-12T09:16:11.915Z,101572.80
2018-10-12T09:18:46.649Z,101582.64
2018-10-12T09:21:19.611Z,101587.58
2018-10-12T09:23:56.981Z,101587.89
2018-10-12T09:26:30.920Z,101583.77
2018-10-12T09:29:00.121Z,101583.74
2018-10-12T09:31:42.959Z,101584.61
2018-10-12T09:34:12.294Z,101585.48
2018-10-12T09:36:45.833Z,101586.31
2018-10-12T09:39:21.860Z,101581.97
2018-10-12T09:41:56.653Z,101576.52
2018-10-12T09:44:45.100Z,101571.63
2018-10-12T09:47:14.034Z,101567.52
2018-10-12T09:49:42.973Z,101570.55
2018-10-12T09:52:18.696Z,101567.56
2018-10-12T09:54:58.348Z,101573.85
2018-10-12T09:57:33.635Z,101570.66
2018-10-12T10:00:04.905Z,101566.58
2018-10-12T10:02:43.968Z,101564.09
2018-10-12T10:05:25.073Z,101564.12
2018-10-12T10:08:06.306Z,101560.31
2018-10-12T10:10:40.885Z,101561.44
2018-10-12T10:13:14.127Z,101555.41
2018-10-12T10:18:38.600Z,101547.77
2018-10-12T10:21:12.236Z,101545.84
2018-10-12T10:23:41.195Z,101549.39
2018-10-12T10:26:10.748Z,101551.04
2018-10-12T10:28:44.367Z,101550.24
2018-10-12T10:31:16.957Z,101544.20
2018-10-12T10:33:48.019Z,101542.31
2018-10-12T10:36:27.748Z,101544.78
2018-10-12T10:38:57.762Z,101546.68
2018-10-12T10:41:39.645Z,101544.23
2018-10-12T10:44:14.570Z,101541.77
2018-10-12T10:46:55.797Z,101540.68
2018-10-12T10:49:31.114Z,101541.24
2018-10-12T10:52:07.125Z,101542.36
2018-10-12T10:54:43.814Z,101538.50
2018-10-12T10:57:13.942Z,101540.12
2018-10-12T10:59:43.488Z,101546.45
2018-10-12T11:02:13.997Z,101547.80
2018-10-12T11:04:43.987Z,101544.80
2018-10-12T11:07:19.943Z,101543.14
2018-10-12T11:09:49.649Z,101542.31
2018-10-12T11:12:19.183Z,101545.06
2018-10-12T11:14:48.781Z,101541.23
2018-10-12T11:17:18.154Z,101543.95
2018-10-12T11:19:47.605Z,101543.06
2018-10-12T11:22:22.144Z,101545.82
2018-10-12T11:24:56.100Z,101537.86
2018-10-12T11:27:24.992Z,101536.20
2018-10-12T11:29:53.916Z,101535.39
2018-10-12T11:32:22.776Z,101535.37
2018-10-12T11:34:51.696Z,101535.10
2018-10-12T11:37:20.604Z,101522.70
2018-10-12T11:39:53.142Z,101527.67
2018-10-12T11:42:36.921Z,101519.38
2018-10-12T11:48:00.768Z,101521.77
2018-10-12T11:50:35.109Z,101525.87
2018-10-12T11:53:15.551Z,101522.26
2018-10-12T11:55:48.050Z,101521.42
2018-10-12T11:58:18.194Z,101519.72
2018-10-12T12:00:59.035Z,101520.20
2018-10-12T12:03:27.883Z,101524.22
2018-10-12T12:05:57.859Z,101515.39
2018-10-12T12:08:27.796Z,101516.80
2018-10-12T12:10:56.794Z,101520.84
2018-10-12T12:13:30.522Z,101516.23
2018-10-12T12:16:01.459Z,101517.16
2018-10-12T12:18:30.448Z,101516.55
2018-10-12T12:20:59.402Z,101525.07
2018-10-12T12:23:36.343Z,101516.16
2018-10-12T12:26:18.455Z,101511.27
2018-10-12T12:28:47.349Z,101510.03
2018-10-12T12:31:16.250Z,101506.66
2018-10-12T12:33:45.157Z,101508.75
2018-10-12T12:36:36.355Z,101509.20
2018-10-12T12:39:07.030Z,101501.91
2018-10-12T12:41:40.778Z,101510.84
2018-10-12T12:44:11.849Z,101503.30
2018-10-12T12:46:46.223Z,101507.91
2018-10-12T12:49:16.055Z,101509.08
2018-10-12T12:51:46.629Z,101504.98
2018-10-12T12:54:22.778Z,101501.42
2018-10-12T12:56:51.796Z,101497.90
2018-10-12T12:59:26.278Z,101501.81
2018-10-12T13:01:56.187Z,101497.84
2018-10-12T13:04:30.647Z,101495.89
2018-10-12T13:07:12.789Z,101495.45
2018-10-12T13:09:41.721Z,101492.63
2018-10-12T13:12:20.667Z,101489.55
2018-10-12T13:14:49.619Z,101485.28
2018-10-12T13:17:18.590Z,101487.59
2018-10-12T13:20:03.571Z,101486.42
2018-10-12T13:22:48.309Z,101486.02
2018-10-12T13:25:17.881Z,101490.42
2018-10-12T13:27:47.352Z,101493.67
2018-10-12T13:30:16.684Z,101500.48
2018-10-12T13:32:46.100Z,101504.52
2018-10-12T13:35:15.381Z,101504.62
2018-10-12T13:37:51.571Z,101507.30
2018-10-12T13:40:21.099Z,101510.22
2018-10-12T13:42:50.908Z,101509.31
2018-10-12T13:45:20.439Z,101507.52
2018-10-12T13:48:08.983Z,101506.66
2018-10-12T13:50:40.430Z,101502.41
2018-10-12T13:53:16.265Z,101506.77
2018-10-12T13:55:45.233Z,101504.45
2018-10-12T13:58:19.034Z,101508.11
2018-10-12T14:00:49.961Z,101505.25
2018-10-12T14:03:36.506Z,101506.42
2018-10-12T14:06:10.168Z,101506.12
2018-10-12T14:08:44.102Z,101508.08
2018-10-12T14:11:15.023Z,101501.16
2018-10-12T14:13:44.018Z,101496.11
2018-10-12T14:16:14.204Z,101498.90
2018-10-12T14:18:48.772Z,101500.81
2018-10-12T14:21:17.640Z,101501.11
2018-10-12T14:23:46.603Z,101500.31
2018-10-12T14:26:16.515Z,101493.84
2018-10-12T14:28:46.686Z,101489.45
2018-10-12T14:31:16.838Z,101493.47
2018-10-12T14:33:46.841Z,101497.25
2018-10-12T14:36:15.789Z,101490.84
2018-10-12T14:38:44.773Z,101491.78
2018-10-12T14:41:13.693Z,101493.16
2018-10-12T14:43:44.742Z,101492.17
2018-10-12T14:46:13.686Z,101495.20
2018-10-12T14:48:50.323Z,101494.42
2018-10-12T14:51:33.223Z,101496.98
2018-10-12T14:54:02.206Z,101492.48
2018-10-12T14:59:05.141Z,101499.73
2018-10-12T15:01:37.761Z,101498.09
2018-10-12T15:04:16.616Z,101505.99
2018-10-12T15:07:03.332Z,101506.09
2018-10-12T15:09:34.301Z,101504.28
2018-10-12T15:12:20.232Z,101507.81
2018-10-12T15:15:00.358Z,101507.67
2018-10-12T15:17:39.065Z,101499.61
2018-10-12T15:20:11.441Z,101504.75
2018-10-12T15:22:40.498Z,101503.44
2018-10-12T15:25:10.586Z,101509.31
2018-10-12T15:27:40.098Z,101507.20
2018-10-12T15:30:13.319Z,101506.09
2018-10-12T15:32:45.813Z,101503.91
2018-10-12T15:35:17.154Z,101503.41
2018-10-12T15:37:49.853Z,101500.86
2018-10-12T15:40:23.792Z,101506.06
2018-10-12T15:42:52.907Z,101497.36
2018-10-12T15:45:23.885Z,101493.63
2018-10-12T15:47:54.162Z,101495.80
2018-10-12T15:50:23.205Z,101495.13
2018-10-12T15:52:58.476Z,101499.92
2018-10-12T15:55:31.373Z,101498.88
2018-10-12T15:58:00.267Z,101501.37
2018-10-12T16:00:31.320Z,101502.10
2018-10-12T16:03:08.478Z,101499.15
2018-10-12T16:05:42.017Z,101496.45
2018-10-12T16:08:16.856Z,101493.38
2018-10-12T16:10:50.072Z,101497.33
2018-10-12T16:13:20.011Z,101497.33
2018-10-12T16:15:53.193Z,101496.25
2018-10-12T16:18:22.185Z,101490.03
2018-10-12T16:20:51.133Z,101497.75
2018-10-12T16:23:23.509Z,101502.50
2018-10-12T16:26:04.016Z,101505.58
2018-10-12T16:28:36.390Z,101506.15
2018-10-12T16:31:12.496Z,101509.23
2018-10-12T16:33:44.685Z,101513.66
2018-10-12T16:36:27.533Z,101513.11
2018-10-12T16:39:09.031Z,101515.31
2018-10-12T16:41:38.355Z,101520.34
2018-10-12T16:44:13.024Z,101521.72
2018-10-12T16:46:52.347Z,101523.95
2018-10-12T16:49:22.293Z,101523.14
2018-10-12T16:51:55.769Z,101524.51
2018-10-12T16:54:33.243Z,101523.69
2018-10-12T16:57:07.928Z,101523.70
2018-10-12T16:59:37.904Z,101524.27
2018-10-12T17:02:12.182Z,101537.45
2018-10-12T17:04:41.188Z,101541.33
2018-10-12T17:07:19.606Z,101540.77
2018-10-12T17:09:53.157Z,101542.46
2018-10-12T17:12:26.268Z,101547.69
2018-10-12T17:14:55.193Z,101542.50
2018-10-12T17:17:40.922Z,101546.07
2018-10-12T17:20:13.903Z,101553.75
2018-10-12T17:22:55.614Z,101557.61
2018-10-12T17:25:37.533Z,101557.34
2018-10-12T17:28:21.277Z,101560.08
2018-10-12T17:30:51.344Z,101557.34
2018-10-12T17:33:22.947Z,101559.53
2018-10-12T17:35:59.242Z,101559.23
2018-10-12T17:38:33.120Z,101566.39
2018-10-12T17:41:10.782Z,101568.86
2018-10-12T17:43:43.184Z,101575.72
2018-10-12T17:46:12.133Z,101571.36
2018-10-12T17:48:41.125Z,101568.34
2018-10-12T17:51:12.761Z,101577.10
2018-10-12T17:53:42.664Z,101580.13
2018-10-12T17:56:12.683Z,101586.70
2018-10-12T17:58:53.973Z,101583.96
2018-10-12T18:01:29.937Z,101581.79
2018-10-12T18:03:59.146Z,101580.42
2018-10-12T18:06:30.050Z,101576.03
2018-10-12T18:08:59.113Z,101582.59
2018-10-12T18:11:28.105Z,101570.56
2018-10-12T18:13:57.056Z,101580.42
2018-10-12T18:19:21.350Z,101577.37
2018-10-12T18:21:55.083Z,101582.03
2018-10-12T18:24:25.079Z,101588.03
2018-10-12T18:26:54.049Z,101587.50
2018-10-12T18:29:27.055Z,101590.48
2018-10-12T18:32:01.485Z,101598.69
2018-10-12T18:34:46.529Z,101591.31
2018-10-12T18:37:20.973Z,101595.13
2018-10-12T18:40:06.550Z,101596.49
2018-10-12T18:42:36.437Z,101596.20
2018-10-12T18:45:07.592Z,101593.45
2018-10-12T18:47:46.671Z,101596.75
2018-10-12T18:50:16.580Z,101602.23
2018-10-12T18:52:51.157Z,101601.12
2018-10-12T18:55:30.828Z,101603.28
2018-10-12T18:57:59.773Z,101610.12
2018-10-12T19:00:28.749Z,101611.77
2018-10-12T19:03:04.165Z,101612.84
2018-10-12T19:05:35.128Z,101606.27
2018-10-12T19:08:04.078Z,101609.48
2018-10-12T19:10:33.966Z,101615.52
2018-10-12T19:13:08.788Z,101616.03
2018-10-12T19:15:37.709Z,101616.30
2018-10-12T19:18:11.429Z,101617.88
2018-10-12T19:20:45.521Z,101609.96
2018-10-12T19:23:17.575Z,101615.16
2018-10-12T19:26:01.602Z,101617.61
2018-10-12T19:28:33.220Z,101615.14
2018-10-12T19:31:02.462Z,101618.95
2018-10-12T19:33:31.455Z,101618.92
2018-10-12T19:36:14.249Z,101622.22
2018-10-12T19:38:49.648Z,101624.68
2018-10-12T19:41:22.230Z,101630.44
2018-10-12T19:43:56.328Z,101641.38
2018-10-12T19:46:28.389Z,101634.25
2018-10-12T19:48:57.442Z,101636.98
2018-10-12T19:51:39.595Z,101639.43
2018-10-12T19:54:10.616Z,101638.35
2018-10-12T19:56:39.694Z,101642.73
2018-10-12T19:59:13.958Z,101639.42
2018-10-12T20:01:54.027Z,101644.38
2018-10-12T20:04:26.351Z,101644.60
2018-10-12T20:06:55.255Z,101642.70
2018-10-12T20:09:26.154Z,101641.86
2018-10-12T20:11:55.114Z,101643.20
2018-10-12T20:14:28.143Z,101642.68
2018-10-12T20:16:57.095Z,101647.58
2018-10-12T20:19:26.075Z,101644.32
2018-10-12T20:22:15.216Z,101644.05
2018-10-12T20:24:44.147Z,101647.30
2018-10-12T20:27:16.217Z,101653.31
2018-10-12T20:29:45.180Z,101651.66
2018-10-12T20:32:26.470Z,101647.53
2018-10-12T20:34:58.036Z,101649.74
2018-10-12T20:37:30.332Z,101652.20
2018-10-12T20:40:02.509Z,101650.00
2018-10-12T20:42:46.169Z,101648.88
2018-10-12T20:45:15.113Z,101651.09
2018-10-12T20:47:46.180Z,101653.81
2018-10-12T20:50:15.254Z,101659.80
2018-10-12T20:52:50.344Z,101657.06
2018-10-12T20:55:19.398Z,101645.59
2018-10-12T20:57:50.688Z,101650.48
2018-10-12T21:00:26.600Z,101652.66
2018-10-12T21:02:57.565Z,101646.41
2018-10-12T21:05:27.630Z,101654.89
2018-10-12T21:07:56.586Z,101650.77
2018-10-12T21:10:42.651Z,101654.06
2018-10-12T21:13:25.749Z,101660.07
2018-10-12T21:16:07.607Z,101659.24
2018-10-12T21:18:40.007Z,101659.52
2018-10-12T21:21:12.331Z,101661.16
2018-10-12T21:23:43.397Z,101665.28
2018-10-12T21:26:13.422Z,101663.90
2018-10-12T21:28:43.462Z,101659.01
2018-10-12T21:31:32.047Z,101661.19
2018-10-12T21:34:08.902Z,101660.89
2018-10-12T21:36:37.987Z,101660.09
2018-10-12T21:39:08.166Z,101660.36
2018-10-12T21:41:37.151Z,101655.97
2018-10-12T21:44:09.687Z,101652.68
2018-10-12T21:46:42.948Z,101655.41
2018-10-12T21:49:19.409Z,101659.28
2018-10-12T21:51:48.459Z,101656.22
2018-10-12T21:54:17.619Z,101657.02
2018-10-12T21:56:47.698Z,101659.20
2018-10-12T21:59:16.720Z,101660.56
2018-10-12T22:01:51.544Z,101656.20
2018-10-12T22:04:21.468Z,101649.38
2018-10-12T22:06:52.441Z,101656.46
2018-10-12T22:09:27.239Z,101654.86
2018-10-12T22:14:49.713Z,101649.10
2018-10-12T22:17:18.712Z,101649.61
2018-10-12T22:19:47.668Z,101643.34
2018-10-12T22:22:22.566Z,101643.05
2018-10-12T22:24:55.142Z,101644.11
2018-10-12T22:27:28.304Z,101645.75
2018-10-12T22:30:02.195Z,101639.20
2018-10-12T22:32:37.046Z,101636.48
2018-10-12T22:35:06.143Z,101636.79
2018-10-12T22:37:36.104Z,101635.95
2018-10-12T22:40:07.173Z,101632.42
2018-10-12T22:42:37.487Z,101645.27
2018-10-12T22:45:20.232Z,101639.54
2018-10-12T22:47:53.377Z,101631.84
2018-10-12T22:50:26.370Z,101631.84
2018-10-12T22:52:57.293Z,101632.96
2018-10-12T22:55:26.230Z,101628.58
2018-10-12T22:58:09.753Z,101628.00
2018-10-12T23:00:40.674Z,101631.81
2018-10-12T23:03:29.631Z,101629.09
2018-10-12T23:05:58.537Z,101628.59
2018-10-12T23:08:35.011Z,101625.25
2018-10-12T23:11:04.084Z,101628.56
2018-10-12T23:13:39.564Z,101624.75
2018-10-12T23:16:10.518Z,101619.80
2018-10-12T23:18:43.310Z,101619.52
2018-10-12T23:21:12.304Z,101612.97
2018-10-12T23:23:41.259Z,101617.07
2018-10-12T23:26:15.722Z,101612.98
2018-10-12T23:29:02.879Z,101611.08
2018-10-12T23:31:31.801Z,101612.45
2018-10-12T23:34:06.894Z,101600.93
2018-10-12T23:36:35.817Z,101601.47
2018-10-12T23:39:07.920Z,101595.72
2018-10-12T23:41:44.523Z,101594.64
2018-10-12T23:44:27.783Z,101598.45
2018-10-12T23:46:57.855Z,101595.44
2018-10-12T23:49:30.730Z,101593.49
2018-10-12T23:51:59.683Z,101595.97
2018-10-12T23:54:39.662Z,101597.86
2018-10-12T23:57:12.194Z,101588.84
